METAR Data
IDs: Format: Raw Decoded Include TAF

Data at: 2044 UTC 14 Dec 2018

KBRO 141953Z 32024G35KT 10SM -RA CLR 20/M03 A3011 RMK AO2 PK WND 32035/1953 RAE14B30 SLP196 P0000 T02001028
KBRO 141853Z 29019G30KT 10SM -RA CLR 19/M02 A3013 RMK AO2 PK WND 30036/1835 RAB26 SLP201 P0000 T01941022
KBRO 141753Z 30020G29KT 10SM CLR 19/M02 A3015 RMK AO2 PK WND 30035/1715 SLP210 T01891022 10189 20111 58005
KBRO 141653Z 31023G31KT 10SM CLR 18/M02 A3018 RMK AO2 PK WND 29035/1640 SLP217 T01781022
KBRO 141553Z AUTO 31024G31KT 10SM CLR 16/M04 A3017 RMK AO2 PK WND 32031/1548 SLP217 T01611039
KBRO 141453Z AUTO 30015G22KT 10SM CLR 14/M03 A3017 RMK AO2 SLP214 T01391028 51021
KBRO 141353Z AUTO 28010KT 10SM CLR 12/M02 A3015 RMK AO2 SLP209 T01221022
KBRO 141253Z AUTO 29010KT 10SM CLR 12/M03 A3013 RMK AO2 SLP202 T01171033
KBRO 141153Z AUTO 30013KT 10SM CLR 13/M03 A3011 RMK AO2 SLP193 T01331033 10150 20128 53009
KBRO 141053Z AUTO 30015G24KT 10SM CLR 14/M03 A3009 RMK AO2 SLP188 T01391028
KBRO 140953Z AUTO 30015G22KT 10SM CLR 14/M03 A3008 RMK AO2 SLP183 T01441028
KBRO 140853Z AUTO 30013G23KT 10SM CLR 14/M01 A3008 RMK AO2 SLP183 T01391011 56002
KBRO 140753Z 31011G15KT 10SM CLR 14/M01 A3008 RMK AO2 SLP183 T01391006
KBRO 140653Z 32011KT 10SM CLR 14/00 A3008 RMK AO2 SLP183 T01440000
KBRO 140553Z 32012G18KT 10SM FEW120 15/02 A3008 RMK AO2 SLP186 60000 T01500017 10239 20144 403000144 50023
KBRO 140453Z 32014G22KT 10SM BKN120 14/02 A3009 RMK AO2 PK WND 33029/0357 RAB08E16 SLP187 P0000 T01440022
KBRO 140353Z 32015G21KT 10SM BKN110 15/04 A3006 RMK AO2 SLP177 T01500039
KBRO 140253Z 33012G22KT 10SM BKN100 16/03 A3001 RMK AO2 PK WND 32032/0220 SLP162 60000 T01610033 51062
KBRO 140153Z 33021G31KT 10SM FEW100 18/04 A2997 RMK AO2 PK WND 34034/0056 RAE0054 SLP146 P0000 T01780039
KBRO 140053Z 33020G30KT 10SM -RA CLR 21/03 A2991 RMK AO2 PK WND 32033/0027 RAB42 PRESRR SLP128 P0000 T02110033
KBRO 132353Z 34012G19KT 10SM CLR 24/11 A2983 RMK AO2 PRESRR SLP100 T02440111 10300 20244 53029
KBRO 132253Z 32012KT 10SM CLR 28/11 A2978 RMK AO2 SLP084 T02780111
KBRO 132153Z 33011G18KT 10SM CLR 29/11 A2976 RMK AO2 SLP077 T02890106
KBRO 132053Z 30010KT 10SM CLR 29/13 A2975 RMK AO2 SLP071 T02940128 56020
KBRO 131953Z 30011KT 10SM CLR 29/16 A2975 RMK AO2 SLP074 T02940156
KBRO 131853Z 26012KT 10SM CLR 28/18 A2978 RMK AO2 SLP082 T02830183
KBRO 131753Z 24010KT 10SM CLR 27/19 A2980 RMK AO2 SLP091 T02670194 10267 20167 58006
KBRO 131653Z 22010KT 10SM CLR 26/20 A2982 RMK AO2 SLP097 T02560200
KBRO 131553Z 21015G21KT 10SM CLR 23/20 A2983 RMK AO2 SLP099 T02330200
KBRO 131453Z 21007KT 10SM CLR 21/19 A2982 RMK AO2 SLP097 T02060194 53006
KBRO 131406Z 00000KT 4SM BR CLR 18/18 A2982 RMK AO2 T01780178
KBRO 131353Z 19004KT 2 1/2SM BR CLR 18/18 A2981 RMK AO2 SLP093 T01780178
KBRO 131253Z 15005KT 10SM CLR 18/18 A2979 RMK AO2 SLP086 T01830183
KBRO 131153Z 11003KT 10SM FEW070 SCT080 19/19 A2980 RMK AO2 RAB1056E06 SLP091 P0000 60007 70008 T01940189 10206 20189 58010
KBRO 131053Z AUTO 26007KT 10SM SCT023 BKN034 OVC044 21/20 A2983 RMK AO2 SLP101 T02060200
KBRO 130953Z AUTO 23004KT 10SM FEW070 BKN110 20/19 A2982 RMK AO2 LTG DSNT N AND NW SLP097 T02000194
KBRO 130853Z AUTO 19004KT 10SM FEW027 SCT100 20/19 A2983 RMK AO2 SLP101 60007 T02000194 58026